Time;durP1;ratioP1;P1;durP2;ratioP2;P2;SDS_P1;SDS_P2;PMS_P1;PMS_P2;Temp;Humidity;BMP_temperature;BMP_pressure;BME280_temperature;BME280_humidity;BME280_pressure;Samples;Min_cycle;Max_cycle;Signal;HPM_P1;HPM_P2
2021/01/13 00:01:09;;;;;;;1.50;1.00;;;14.20;99.90;;;;;;5093838;28;20462;-36
2021/01/13 00:03:40;;;;;;;0.93;0.60;;;14.20;99.90;;;;;;5095232;28;20530;-29
2021/01/13 00:06:17;;;;;;;1.20;0.70;;;14.20;99.90;;;;;;5100692;28;20895;-28
2021/01/13 00:08:49;;;;;;;0.60;0.60;;;14.20;99.90;;;;;;5100742;28;20431;-29
2021/01/13 00:11:19;;;;;;;1.03;0.50;;;14.20;99.90;;;;;;5097428;28;20435;-30
2021/01/13 00:13:49;;;;;;;1.80;0.73;;;14.20;99.90;;;;;;5103052;28;20553;-29
2021/01/13 00:16:20;;;;;;;0.80;0.80;;;14.20;99.90;;;;;;5101102;28;20511;-29
2021/01/13 00:18:51;;;;;;;0.70;0.60;;;14.20;99.90;;;;;;5098419;28;20553;-29
2021/01/13 00:21:21;;;;;;;0.60;0.60;;;14.20;99.90;;;;;;5092973;28;20492;-32
2021/01/13 00:23:51;;;;;;;0.83;0.60;;;14.30;99.90;;;;;;5102337;28;20509;-32
2021/01/13 00:26:22;;;;;;;2.47;2.27;;;14.30;99.90;;;;;;5105273;28;21202;-31
2021/01/13 00:28:53;;;;;;;0.80;0.80;;;14.30;99.90;;;;;;5098700;28;20434;-32
2021/01/13 00:31:25;;;;;;;0.80;0.80;;;14.30;99.90;;;;;;5097423;28;20432;-31
2021/01/13 00:33:55;;;;;;;0.60;0.60;;;14.30;99.90;;;;;;5103861;28;20552;-33
2021/01/13 00:36:27;;;;;;;1.27;1.17;;;14.30;99.90;;;;;;5101956;28;20531;-30
2021/01/13 00:38:58;;;;;;;0.60;0.50;;;14.20;99.90;;;;;;5102535;28;20512;-32
2021/01/13 00:41:28;;;;;;;1.60;1.10;;;14.30;99.90;;;;;;5100252;28;20431;-29
2021/01/13 00:43:58;;;;;;;0.90;0.50;;;14.30;99.90;;;;;;5113519;27;20429;-32
2021/01/13 00:46:39;;;;;;;0.50;0.50;;;14.30;99.90;;;;;;5108304;28;20437;-32
2021/01/13 00:49:10;;;;;;;1.17;0.50;;;14.30;99.90;;;;;;5112588;28;20872;-32
2021/01/13 00:51:42;;;;;;;0.47;0.47;;;14.30;99.90;;;;;;5107068;28;20437;-32
2021/01/13 00:54:13;;;;;;;0.90;0.60;;;14.30;99.90;;;;;;5106112;28;20439;-27
2021/01/13 00:56:45;;;;;;;0.90;0.90;;;14.30;99.90;;;;;;5101278;28;20465;-34
2021/01/13 00:59:16;;;;;;;1.43;0.67;;;14.30;99.90;;;;;;5103531;28;20794;-28
2021/01/13 01:01:49;;;;;;;0.87;0.67;;;14.30;99.90;;;;;;5093637;28;20431;-30
2021/01/13 01:04:19;;;;;;;1.27;0.57;;;14.30;99.90;;;;;;5093656;27;20779;-35
2021/01/13 01:06:50;;;;;;;0.53;0.50;;;14.40;99.90;;;;;;5103109;27;20441;-35
2021/01/13 01:09:20;;;;;;;0.70;0.70;;;14.40;99.90;;;;;;5093803;28;20479;-32
2021/01/13 01:11:50;;;;;;;0.67;0.50;;;14.40;99.90;;;;;;5092913;28;20474;-32
2021/01/13 01:14:20;;;;;;;0.70;0.70;;;14.40;99.90;;;;;;5094987;28;20549;-33
2021/01/13 01:16:59;;;;;;;0.60;0.30;;;14.40;99.90;;;;;;5104976;28;20490;-35
2021/01/13 01:19:30;;;;;;;0.43;0.40;;;14.40;99.90;;;;;;5091926;28;20941;-29
2021/01/13 01:22:00;;;;;;;0.40;0.30;;;14.40;99.90;;;;;;5091142;28;20496;-28
2021/01/13 01:24:31;;;;;;;0.60;0.43;;;14.40;99.90;;;;;;5091516;28;20588;-30
2021/01/13 01:27:01;;;;;;;1.17;0.80;;;14.50;99.90;;;;;;5091189;28;20769;-35
2021/01/13 01:29:31;;;;;;;0.60;0.50;;;14.50;99.90;;;;;;5104636;27;20805;-31
2021/01/13 01:32:02;;;;;;;2.43;0.73;;;14.50;99.90;;;;;;5112720;27;20449;-32
2021/01/13 01:34:32;;;;;;;0.53;0.53;;;14.50;99.90;;;;;;5111654;28;20454;-34
2021/01/13 01:37:02;;;;;;;0.67;0.63;;;14.50;99.90;;;;;;5111329;28;20441;-33
2021/01/13 01:39:32;;;;;;;0.57;0.57;;;14.60;99.90;;;;;;5111726;28;20464;-33
2021/01/13 01:42:02;;;;;;;0.93;0.63;;;14.60;99.90;;;;;;5093066;28;20458;-34
2021/01/13 01:44:33;;;;;;;0.90;0.57;;;14.60;99.90;;;;;;5091242;28;20446;-29
2021/01/13 01:47:09;;;;;;;0.50;0.37;;;14.60;99.90;;;;;;5090935;28;20462;-32
2021/01/13 01:49:45;;;;;;;0.40;0.33;;;14.50;99.90;;;;;;5091165;28;20534;-32
2021/01/13 01:52:18;;;;;;;0.50;0.50;;;14.60;99.90;;;;;;5107404;28;20493;-30
2021/01/13 01:54:55;;;;;;;0.60;0.50;;;14.50;99.90;;;;;;5100881;27;20512;-31
2021/01/13 01:57:26;;;;;;;0.57;0.37;;;14.50;99.90;;;;;;5105099;28;20502;-34
2021/01/13 02:00:02;;;;;;;0.90;0.60;;;14.50;99.90;;;;;;5111044;28;20440;-31
2021/01/13 02:02:40;;;;;;;0.57;0.57;;;14.60;99.90;;;;;;5109795;28;20549;-31
2021/01/13 02:05:13;;;;;;;0.93;0.50;;;14.50;99.90;;;;;;5111483;28;20434;-36
2021/01/13 02:07:48;;;;;;;2.20;0.80;;;14.60;99.90;;;;;;5110916;28;20733;-34
2021/01/13 02:10:18;;;;;;;1.53;0.60;;;14.50;99.90;;;;;;5106584;28;20438;-33
2021/01/13 02:12:53;;;;;;;1.10;0.40;;;14.60;99.90;;;;;;5111016;28;20822;-34
2021/01/13 02:15:23;;;;;;;1.70;0.53;;;14.60;99.90;;;;;;5111138;28;20499;-33
2021/01/13 02:17:58;;;;;;;0.40;0.40;;;14.60;99.90;;;;;;5110480;28;20446;-30
2021/01/13 02:20:31;;;;;;;1.57;0.90;;;14.60;99.90;;;;;;5096044;28;20450;-33
2021/01/13 02:23:04;;;;;;;1.17;0.67;;;14.60;99.90;;;;;;5090530;28;20435;-34
2021/01/13 02:26:14;;;;;;;0.83;0.80;;;14.50;99.90;;;;;;5091575;28;20482;-34
2021/01/13 02:28:57;;;;;;;1.07;0.60;;;14.50;99.90;;;;;;5090271;28;20446;-30
2021/01/13 02:31:36;;;;;;;3.60;3.30;;;14.60;99.90;;;;;;5089805;28;20936;-32
2021/01/13 02:34:19;;;;;;;1.63;1.53;;;14.50;99.90;;;;;;5090558;28;20781;-30
2021/01/13 02:37:25;;;;;;;1.30;1.20;;;14.50;99.90;;;;;;5090067;28;20951;-34
2021/01/13 02:39:57;;;;;;;1.00;1.00;;;14.50;99.90;;;;;;5089708;28;20439;-33
2021/01/13 02:42:36;;;;;;;1.87;1.77;;;14.50;99.90;;;;;;5090201;28;20435;-30
2021/01/13 02:45:18;;;;;;;0.70;0.70;;;14.60;99.90;;;;;;5091018;28;20437;-33
2021/01/13 02:48:12;;;;;;;5.37;4.97;;;14.50;99.90;;;;;;5091990;28;20480;-31
2021/01/13 02:50:47;;;;;;;1.10;1.10;;;14.50;99.90;;;;;;5095100;28;20439;-32
2021/01/13 02:53:49;;;;;;;1.00;0.90;;;14.50;99.90;;;;;;5106145;28;20840;-33
2021/01/13 02:56:39;;;;;;;2.13;1.93;;;14.50;99.90;;;;;;5102458;28;20789;-34
2021/01/13 02:59:13;;;;;;;0.70;0.70;;;14.50;99.90;;;;;;5097967;28;20446;-35
2021/01/13 03:01:46;;;;;;;1.57;1.20;;;14.50;99.90;;;;;;5093877;28;20499;-32
2021/01/13 03:04:17;;;;;;;1.57;0.70;;;14.50;99.90;;;;;;5091986;28;20873;-32
2021/01/13 03:06:48;;;;;;;0.70;0.70;;;14.50;99.90;;;;;;5096901;28;20470;-29
2021/01/13 03:09:21;;;;;;;3.80;2.33;;;14.50;99.90;;;;;;5109365;28;20446;-33
2021/01/13 03:11:51;;;;;;;2.80;2.60;;;14.50;99.90;;;;;;5096328;28;20443;-30
2021/01/13 03:14:26;;;;;;;0.97;0.80;;;14.50;99.90;;;;;;5105448;28;20508;-33
2021/01/13 03:17:12;;;;;;;0.97;0.83;;;14.50;99.90;;;;;;5108925;28;20476;-32
2021/01/13 03:20:09;;;;;;;0.70;0.70;;;14.50;99.90;;;;;;5107673;28;20498;-30
2021/01/13 03:22:50;;;;;;;1.10;1.03;;;14.50;99.90;;;;;;5104265;28;20471;-31
2021/01/13 03:25:22;;;;;;;0.93;0.93;;;14.50;99.90;;;;;;5101504;28;20546;-35
2021/01/13 03:27:55;;;;;;;0.70;0.67;;;14.50;99.90;;;;;;5092995;28;20515;-33
2021/01/13 03:30:27;;;;;;;0.90;0.80;;;14.50;99.90;;;;;;5098067;28;20446;-31
2021/01/13 03:33:25;;;;;;;0.63;0.63;;;14.50;99.90;;;;;;5091761;28;20823;-36
2021/01/13 03:35:59;;;;;;;2.17;0.60;;;14.50;99.90;;;;;;5074402;28;20478;-34
2021/01/13 03:38:30;;;;;;;1.30;0.70;;;14.50;99.90;;;;;;5089639;28;20459;-33
2021/01/13 03:41:06;;;;;;;0.60;0.53;;;14.50;99.90;;;;;;5105132;28;21022;-30
2021/01/13 03:43:39;;;;;;;3.33;1.13;;;14.50;99.90;;;;;;5097587;28;20452;-30
2021/01/13 03:46:10;;;;;;;0.77;0.70;;;14.50;99.90;;;;;;5101478;28;20533;-32
2021/01/13 03:48:51;;;;;;;0.77;0.40;;;14.50;99.90;;;;;;5101473;28;20510;-30
2021/01/13 03:51:51;;;;;;;0.70;0.67;;;14.50;99.90;;;;;;5095727;28;20825;-30
2021/01/13 03:54:29;;;;;;;2.20;0.67;;;14.50;99.90;;;;;;5099906;28;20448;-29
2021/01/13 03:57:02;;;;;;;0.53;0.53;;;14.50;99.90;;;;;;5094162;28;20462;-31
2021/01/13 03:59:46;;;;;;;0.67;0.53;;;14.60;99.90;;;;;;5096240;28;20441;-29
2021/01/13 04:02:23;;;;;;;5.23;0.60;;;14.50;99.90;;;;;;5086973;28;20439;-29
2021/01/13 04:05:13;;;;;;;3.30;0.60;;;14.50;99.90;;;;;;5098282;28;20510;-34
2021/01/13 04:07:43;;;;;;;0.77;0.77;;;14.50;99.90;;;;;;5096882;28;20434;-31
2021/01/13 04:10:15;;;;;;;1.27;0.70;;;14.50;99.90;;;;;;5102155;28;20558;-29
2021/01/13 04:12:58;;;;;;;0.50;0.50;;;14.50;99.90;;;;;;5093615;28;20451;-35
2021/01/13 04:15:36;;;;;;;0.57;0.57;;;14.50;99.90;;;;;;5091767;28;20487;-34
2021/01/13 04:18:09;;;;;;;0.40;0.37;;;14.50;99.90;;;;;;5092959;28;20453;-34
2021/01/13 04:20:44;;;;;;;0.70;0.60;;;14.50;99.90;;;;;;5091589;28;20449;-35
2021/01/13 04:23:14;;;;;;;1.33;1.00;;;14.50;99.90;;;;;;5106619;28;20503;-36
2021/01/13 04:25:45;;;;;;;0.33;0.33;;;14.50;99.90;;;;;;5102527;28;20447;-35
2021/01/13 04:28:15;;;;;;;1.57;0.60;;;14.50;99.90;;;;;;5100416;28;20433;-31
2021/01/13 04:30:46;;;;;;;0.43;0.43;;;14.50;99.90;;;;;;5099997;28;20470;-34
2021/01/13 04:33:17;;;;;;;1.17;0.50;;;14.50;99.90;;;;;;5101312;28;20461;-33
2021/01/13 04:35:48;;;;;;;1.33;0.83;;;14.60;99.90;;;;;;5101733;27;20473;-31
2021/01/13 04:38:23;;;;;;;0.77;0.73;;;14.50;99.90;;;;;;5091228;28;20439;-33
2021/01/13 04:41:11;;;;;;;0.37;0.37;;;14.60;99.90;;;;;;5091884;28;20423;-30
2021/01/13 04:43:56;;;;;;;1.20;0.70;;;14.60;99.90;;;;;;5092363;28;20457;-30
2021/01/13 04:46:33;;;;;;;1.80;0.70;;;14.60;99.90;;;;;;5090491;28;20437;-31
2021/01/13 04:49:11;;;;;;;0.57;0.50;;;14.60;99.90;;;;;;5097323;28;20441;-31
2021/01/13 04:51:44;;;;;;;0.73;0.70;;;14.60;99.90;;;;;;5092762;28;20524;-32
2021/01/13 04:54:15;;;;;;;1.07;0.60;;;14.60;99.90;;;;;;5104858;28;20445;-30
2021/01/13 04:57:12;;;;;;;0.80;0.60;;;14.50;99.90;;;;;;5103527;28;20549;-35
2021/01/13 05:00:12;;;;;;;0.67;0.50;;;14.50;99.90;;;;;;5092021;28;20807;-33
2021/01/13 05:03:38;;;;;;;0.80;0.60;;;14.60;99.90;;;;;;5091107;28;20924;-31
2021/01/13 05:06:29;;;;;;;1.07;0.53;;;14.60;99.90;;;;;;5080433;28;20867;-34
2021/01/13 05:09:06;;;;;;;0.60;0.47;;;14.50;99.90;;;;;;5088030;28;20439;-35
2021/01/13 05:11:41;;;;;;;0.70;0.50;;;14.50;99.90;;;;;;5093906;28;20441;-32
2021/01/13 05:14:12;;;;;;;1.23;0.50;;;14.60;99.90;;;;;;5095748;28;20506;-32
2021/01/13 05:17:02;;;;;;;0.47;0.47;;;14.60;99.90;;;;;;5091304;28;20951;-31
2021/01/13 05:20:09;;;;;;;0.40;0.40;;;14.50;99.90;;;;;;5109220;28;20495;-35
2021/01/13 05:22:40;;;;;;;0.83;0.50;;;14.50;99.90;;;;;;5097005;28;20476;-29
2021/01/13 05:25:12;;;;;;;0.50;0.40;;;14.50;99.90;;;;;;5105689;27;20474;-34
2021/01/13 05:28:05;;;;;;;0.33;0.33;;;14.60;99.90;;;;;;5103322;28;20460;-29
2021/01/13 05:30:37;;;;;;;0.30;0.30;;;14.60;99.90;;;;;;5108218;28;20852;-32
2021/01/13 05:33:13;;;;;;;1.07;0.40;;;14.60;99.90;;;;;;5109114;28;20426;-30
2021/01/13 05:35:52;;;;;;;1.03;0.40;;;14.60;99.90;;;;;;5106028;28;20579;-30
2021/01/13 05:38:54;;;;;;;0.50;0.40;;;14.60;99.90;;;;;;5107253;28;20446;-31
2021/01/13 05:41:30;;;;;;;0.93;0.40;;;14.70;99.90;;;;;;5101408;28;20445;-29
2021/01/13 05:44:01;;;;;;;0.30;0.30;;;14.70;99.90;;;;;;5111533;28;20839;-32
2021/01/13 05:46:45;;;;;;;0.60;0.50;;;14.70;99.90;;;;;;5108269;28;20439;-32
2021/01/13 05:49:15;;;;;;;0.33;0.30;;;14.70;99.90;;;;;;5096465;28;20781;-30
2021/01/13 05:51:46;;;;;;;0.80;0.30;;;14.70;99.90;;;;;;5097367;27;20508;-34
2021/01/13 05:54:17;;;;;;;0.60;0.30;;;14.70;99.90;;;;;;5108945;27;20442;-35
2021/01/13 05:56:55;;;;;;;0.50;0.30;;;14.70;99.90;;;;;;5106262;28;20469;-28
2021/01/13 05:59:30;;;;;;;0.40;0.30;;;14.70;99.90;;;;;;5091307;28;20431;-32
2021/01/13 06:02:04;;;;;;;0.97;0.60;;;14.70;99.90;;;;;;5090520;28;20458;-33
2021/01/13 06:04:42;;;;;;;0.33;0.30;;;14.70;99.90;;;;;;5091377;28;20858;-34
2021/01/13 06:07:23;;;;;;;0.40;0.30;;;14.80;99.90;;;;;;5090936;28;20495;-32
2021/01/13 11:05:18;;;;;;;0.47;0.47;;;9.40;99.90;;;;;;5123452;27;20506;-32
2021/01/13 11:07:52;;;;;;;0.50;0.50;;;9.80;99.90;;;;;;5124062;28;20220;-31
2021/01/13 11:10:25;;;;;;;0.40;0.40;;;9.80;99.90;;;;;;5121192;28;20201;-32
2021/01/13 11:13:03;;;;;;;0.40;0.38;;;9.80;99.90;;;;;;5107374;28;20218;-32
2021/01/13 11:15:35;;;;;;;0.55;0.45;;;10.00;99.90;;;;;;5126470;28;20195;-30
2021/01/13 11:18:10;;;;;;;0.40;0.30;;;10.00;99.90;;;;;;5127333;28;20187;-34
2021/01/13 11:20:48;;;;;;;0.50;0.40;;;9.90;99.90;;;;;;5127168;27;20188;-36
2021/01/13 11:23:20;;;;;;;0.50;0.40;;;9.90;99.90;;;;;;5127370;27;20246;-32
2021/01/13 11:25:54;;;;;;;0.30;0.30;;;9.80;99.90;;;;;;5126568;27;20208;-32
2021/01/13 11:28:29;;;;;;;0.60;0.30;;;9.80;99.90;;;;;;5127423;27;20514;-34
2021/01/13 11:31:01;;;;;;;0.60;0.40;;;9.80;99.90;;;;;;5126964;27;20245;-36
2021/01/13 11:33:33;;;;;;;1.10;0.30;;;9.70;99.90;;;;;;5126954;27;20651;-33
2021/01/13 11:36:06;;;;;;;0.40;0.30;;;9.70;99.90;;;;;;5118760;27;20605;-32
2021/01/13 11:39:00;;;;;;;1.58;0.68;;;9.70;99.90;;;;;;5109536;27;20192;-31
2021/01/13 11:42:12;;;;;;;0.73;0.50;;;9.70;99.90;;;;;;5105644;28;20190;-34
2021/01/13 11:44:56;;;;;;;1.58;0.50;;;9.60;99.90;;;;;;5106405;28;20216;-36
2021/01/13 11:47:33;;;;;;;0.80;0.55;;;9.60;99.90;;;;;;5117706;28;20238;-35
2021/01/13 11:50:12;;;;;;;2.38;0.80;;;9.50;99.90;;;;;;5113549;28;20555;-34
2021/01/13 11:52:46;;;;;;;1.13;0.60;;;9.50;99.90;;;;;;5119702;28;20200;-36
2021/01/13 11:55:17;;;;;;;0.60;0.60;;;9.40;99.90;;;;;;5105952;28;20268;-36
2021/01/13 11:57:49;;;;;;;2.10;0.47;;;9.50;99.90;;;;;;5105589;28;20639;-32
2021/01/13 12:00:21;;;;;;;0.50;0.40;;;9.40;99.90;;;;;;5109262;28;20229;-35
2021/01/13 12:02:52;;;;;;;0.70;0.43;;;9.40;99.90;;;;;;5106604;27;20264;-36
2021/01/13 12:05:28;;;;;;;1.10;0.40;;;9.40;99.90;;;;;;5096136;28;20196;-37
2021/01/13 12:08:04;;;;;;;0.70;0.45;;;9.40;99.90;;;;;;5092519;28;20621;-37
2021/01/13 12:10:36;;;;;;;2.95;0.60;;;9.40;99.90;;;;;;5092048;28;20603;-34
2021/01/13 12:13:13;;;;;;;0.70;0.50;;;9.50;99.90;;;;;;5107852;28;20205;-31
2021/01/13 12:15:55;;;;;;;1.48;0.70;;;9.40;99.90;;;;;;5092276;28;20322;-36
2021/01/13 12:18:27;;;;;;;1.63;0.68;;;9.40;99.90;;;;;;5092659;28;20201;-35
2021/01/13 12:20:59;;;;;;;3.13;1.30;;;9.50;99.90;;;;;;5092247;28;20197;-34
2021/01/13 12:23:36;;;;;;;1.77;0.98;;;9.40;99.90;;;;;;5092413;28;20217;-36
2021/01/13 12:26:18;;;;;;;3.35;0.82;;;9.40;99.90;;;;;;5104629;28;20223;-35
2021/01/13 12:28:50;;;;;;;2.67;0.88;;;9.40;99.90;;;;;;5102579;28;20599;-37
2021/01/13 12:31:21;;;;;;;1.08;0.60;;;9.30;99.90;;;;;;5091572;28;20661;-36
2021/01/13 12:33:53;;;;;;;1.15;0.70;;;9.20;99.90;;;;;;5094248;28;20206;-29
2021/01/13 12:36:26;;;;;;;0.70;0.65;;;9.10;99.90;;;;;;5096117;28;20253;-34
2021/01/13 12:38:59;;;;;;;0.70;0.70;;;9.00;99.90;;;;;;5108726;28;20674;-32
2021/01/13 12:41:31;;;;;;;4.13;0.90;;;8.90;99.90;;;;;;5098777;28;20196;-34
2021/01/13 12:44:05;;;;;;;2.92;0.70;;;8.80;99.90;;;;;;5099465;28;20266;-33
2021/01/13 12:46:37;;;;;;;1.75;1.58;;;8.70;99.90;;;;;;5106222;28;20199;-36
2021/01/13 12:49:07;;;;;;;1.70;0.98;;;8.70;99.90;;;;;;5091382;28;20224;-34
2021/01/13 12:51:37;;;;;;;1.25;0.80;;;8.60;99.90;;;;;;5100790;28;20613;-34
2021/01/13 12:54:08;;;;;;;1.95;0.65;;;8.60;99.90;;;;;;5098980;28;20574;-35
2021/01/13 12:56:38;;;;;;;1.02;0.70;;;8.60;99.90;;;;;;5101837;28;20222;-36
2021/01/13 12:59:08;;;;;;;3.58;0.98;;;8.60;99.90;;;;;;5111272;28;20200;-33
2021/01/13 13:01:39;;;;;;;2.03;0.70;;;8.60;99.90;;;;;;5111559;28;20236;-33
2021/01/13 13:04:09;;;;;;;1.50;1.00;;;8.60;99.90;;;;;;5110039;28;20296;-33
2021/01/13 13:06:41;;;;;;;1.23;0.70;;;8.60;99.90;;;;;;5110876;28;20302;-37
2021/01/13 13:09:13;;;;;;;2.55;1.20;;;8.70;99.90;;;;;;5111835;28;20699;-37
2021/01/13 13:11:49;;;;;;;2.03;1.48;;;8.70;99.90;;;;;;5110870;28;20196;-35
2021/01/13 13:14:19;;;;;;;2.50;1.20;;;8.80;99.90;;;;;;5111698;28;20595;-32
2021/01/13 13:16:49;;;;;;;3.65;1.10;;;8.80;99.90;;;;;;5110036;28;20192;-36
2021/01/13 13:19:22;;;;;;;1.42;1.30;;;8.80;99.90;;;;;;5111642;28;20581;-33
2021/01/13 13:21:54;;;;;;;1.73;1.25;;;8.80;99.90;;;;;;5110497;28;20199;-33
2021/01/13 13:24:27;;;;;;;2.00;1.00;;;8.80;99.90;;;;;;5098387;28;20228;-37
2021/01/13 13:26:58;;;;;;;2.88;1.45;;;8.80;99.90;;;;;;5090614;28;20533;-33
2021/01/13 13:29:28;;;;;;;3.28;0.80;;;8.90;99.90;;;;;;5091332;28;20694;-33
2021/01/13 13:31:58;;;;;;;1.58;0.95;;;8.80;99.90;;;;;;5110382;28;20200;-35
2021/01/13 13:34:28;;;;;;;3.55;1.23;;;8.80;99.90;;;;;;5103778;28;20228;-36
2021/01/13 13:37:01;;;;;;;2.92;0.88;;;8.70;99.90;;;;;;5090534;28;20204;-35
2021/01/13 13:39:32;;;;;;;2.30;1.15;;;8.70;99.90;;;;;;5091308;28;20281;-35
2021/01/13 13:42:02;;;;;;;4.00;1.10;;;8.60;99.90;;;;;;5089766;28;20189;-31
2021/01/13 13:44:32;;;;;;;2.92;1.02;;;8.60;99.90;;;;;;5102284;28;20226;-35
2021/01/13 13:47:02;;;;;;;6.18;1.88;;;8.60;99.90;;;;;;5110869;28;20204;-34
2021/01/13 13:49:32;;;;;;;4.22;1.48;;;8.70;99.90;;;;;;5111272;28;20699;-37
2021/01/13 13:52:03;;;;;;;3.28;1.25;;;8.60;99.90;;;;;;5110702;28;20239;-35
2021/01/13 13:54:34;;;;;;;3.90;1.50;;;8.60;99.90;;;;;;5101093;28;20270;-33
2021/01/13 13:57:04;;;;;;;3.75;1.15;;;8.60;99.90;;;;;;5089946;28;20632;-31
2021/01/13 13:59:34;;;;;;;4.47;1.20;;;8.60;99.90;;;;;;5091045;28;20211;-35
2021/01/13 14:02:04;;;;;;;2.97;1.23;;;8.70;99.90;;;;;;5090554;28;20242;-35
2021/01/13 14:04:34;;;;;;;6.78;1.70;;;8.60;99.90;;;;;;5090286;28;20388;-36
2021/01/13 14:07:05;;;;;;;2.00;1.20;;;8.60;99.90;;;;;;5105381;28;20192;-36
2021/01/13 14:09:36;;;;;;;4.85;1.40;;;8.60;99.90;;;;;;5106618;28;20197;-35
2021/01/13 14:12:07;;;;;;;2.85;1.77;;;8.50;99.90;;;;;;5093812;28;20720;-34
2021/01/13 14:14:38;;;;;;;3.75;1.67;;;8.50;99.90;;;;;;5105241;28;20298;-35
2021/01/13 14:17:09;;;;;;;3.05;1.80;;;8.50;99.90;;;;;;5094151;28;20191;-37
2021/01/13 14:19:39;;;;;;;5.20;1.50;;;8.40;99.90;;;;;;5098367;28;20234;-29
2021/01/13 14:22:09;;;;;;;2.47;1.40;;;8.40;99.90;;;;;;5105903;28;20192;-34
2021/01/13 14:24:41;;;;;;;1.30;1.10;;;8.40;99.90;;;;;;5110405;28;20723;-35
2021/01/13 14:27:12;;;;;;;3.60;1.80;;;8.30;99.90;;;;;;5108659;28;20212;-34
2021/01/13 14:29:42;;;;;;;4.20;1.75;;;8.30;99.90;;;;;;5110246;28;20276;-35
2021/01/13 14:32:16;;;;;;;4.93;1.50;;;8.30;99.90;;;;;;5109918;28;20308;-38
2021/01/13 14:34:46;;;;;;;4.45;1.63;;;8.30;99.90;;;;;;5100349;28;20258;-36
2021/01/13 14:37:16;;;;;;;11.20;2.20;;;8.30;99.90;;;;;;5089656;28;20196;-36
2021/01/13 14:39:47;;;;;;;3.72;1.42;;;8.20;99.90;;;;;;5105018;28;20640;-34
2021/01/13 14:42:18;;;;;;;5.05;1.67;;;8.20;99.90;;;;;;5091838;28;20204;-36
2021/01/13 14:44:48;;;;;;;8.90;2.05;;;8.20;99.90;;;;;;5089754;28;20216;-35
2021/01/13 14:47:18;;;;;;;11.63;1.95;;;8.20;99.90;;;;;;5089556;28;20825;-36
2021/01/13 14:49:48;;;;;;;3.88;1.40;;;8.30;99.90;;;;;;5089795;28;20215;-34
2021/01/13 14:52:18;;;;;;;5.78;1.90;;;8.30;99.90;;;;;;5099276;28;20228;-32
2021/01/13 14:54:50;;;;;;;4.43;2.13;;;8.40;99.90;;;;;;5089686;28;20227;-35
2021/01/13 14:57:20;;;;;;;1.63;1.13;;;8.40;99.90;;;;;;5088742;28;20210;-37
2021/01/13 14:59:50;;;;;;;6.60;2.15;;;8.50;99.90;;;;;;5099012;28;20200;-37
2021/01/13 15:02:21;;;;;;;4.35;1.77;;;8.50;99.90;;;;;;5109990;28;20242;-35
2021/01/13 15:04:50;;;;;;;5.85;2.15;;;8.60;99.90;;;;;;5110105;28;20334;-34
2021/01/13 15:07:21;;;;;;;5.53;2.17;;;8.60;99.90;;;;;;5110417;28;20220;-35
2021/01/13 15:09:52;;;;;;;6.07;2.17;;;8.70;99.90;;;;;;5109477;28;20188;-32
2021/01/13 15:12:22;;;;;;;4.75;1.63;;;8.70;99.90;;;;;;5102531;28;20192;-31
2021/01/13 15:14:52;;;;;;;8.45;2.58;;;8.60;99.90;;;;;;5089924;28;20235;-32
2021/01/13 15:17:22;;;;;;;4.95;2.03;;;8.60;99.90;;;;;;5107432;28;20489;-33
2021/01/13 15:19:51;;;;;;;7.95;2.10;;;8.60;99.90;;;;;;5110146;28;20302;-34
2021/01/13 15:22:22;;;;;;;7.30;2.40;;;8.60;99.90;;;;;;5109729;28;20195;-36
2021/01/13 15:24:53;;;;;;;3.70;1.55;;;8.50;99.90;;;;;;5102364;28;20243;-36
2021/01/13 15:27:23;;;;;;;6.38;2.60;;;8.60;99.90;;;;;;5088625;28;20212;-32
2021/01/13 15:29:53;;;;;;;5.13;1.83;;;8.60;99.90;;;;;;5090192;28;20200;-35
2021/01/13 15:32:23;;;;;;;6.22;2.70;;;8.60;99.90;;;;;;5104303;28;20249;-33
2021/01/13 15:34:58;;;;;;;6.05;2.30;;;8.60;99.90;;;;;;5103446;28;20204;-29
2021/01/13 15:37:28;;;;;;;4.57;2.70;;;8.60;99.90;;;;;;5108131;28;20196;-33
2021/01/13 15:39:59;;;;;;;6.80;2.15;;;8.70;99.90;;;;;;5107167;28;20200;-30
2021/01/13 15:42:29;;;;;;;7.65;2.75;;;8.70;99.90;;;;;;5109317;28;20564;-33
2021/01/13 15:44:59;;;;;;;7.82;2.72;;;8.70;99.90;;;;;;5112989;28;20268;-33
2021/01/13 15:47:49;;;;;;;10.07;2.50;;;8.70;99.90;;;;;;5103044;28;20567;-36
2021/01/13 15:50:20;;;;;;;4.10;2.25;;;8.80;99.90;;;;;;5092942;28;20612;-33
2021/01/13 15:52:51;;;;;;;6.20;2.15;;;8.80;99.90;;;;;;5093004;28;20238;-33
2021/01/13 15:55:23;;;;;;;5.10;2.13;;;8.80;99.90;;;;;;5092653;28;20240;-36
2021/01/13 15:57:57;;;;;;;8.40;2.00;;;8.80;99.90;;;;;;5092767;28;20193;-37
2021/01/13 16:00:28;;;;;;;6.20;2.45;;;8.80;99.90;;;;;;5097619;28;20255;-35
2021/01/13 16:02:58;;;;;;;3.90;1.83;;;8.90;99.90;;;;;;5113066;28;20233;-36
2021/01/13 16:05:28;;;;;;;3.80;1.98;;;8.90;99.90;;;;;;5113009;28;20245;-34
2021/01/13 16:07:59;;;;;;;6.68;2.17;;;8.90;99.90;;;;;;5110551;28;20192;-32
2021/01/13 16:10:31;;;;;;;4.50;2.80;;;8.90;99.90;;;;;;5091935;28;20241;-32
2021/01/13 16:13:03;;;;;;;6.97;3.05;;;9.00;99.90;;;;;;5092399;28;20200;-33
2021/01/13 16:15:34;;;;;;;5.50;1.80;;;9.00;99.90;;;;;;5095076;28;20188;-32
2021/01/13 16:18:04;;;;;;;5.35;2.20;;;9.00;99.90;;;;;;5096011;28;20550;-35
2021/01/13 16:20:35;;;;;;;9.00;2.70;;;9.00;99.90;;;;;;5092722;28;20197;-35
2021/01/13 16:23:08;;;;;;;4.47;2.75;;;9.00;99.90;;;;;;5097969;28;20199;-32
2021/01/13 16:25:39;;;;;;;6.45;2.28;;;9.10;99.90;;;;;;5098639;28;20250;-36
2021/01/13 16:28:09;;;;;;;4.25;1.90;;;9.10;99.90;;;;;;5092287;28;20190;-33
2021/01/13 16:30:40;;;;;;;5.65;2.60;;;9.20;99.90;;;;;;5110700;28;20340;-33
2021/01/13 16:33:13;;;;;;;7.70;2.83;;;9.20;99.90;;;;;;5112623;28;20192;-31
2021/01/13 16:35:47;;;;;;;4.80;2.15;;;9.20;99.90;;;;;;5106579;27;20230;-36
2021/01/13 16:38:17;;;;;;;3.42;1.70;;;9.20;99.90;;;;;;5106832;28;20192;-31
2021/01/13 16:40:49;;;;;;;6.03;1.92;;;9.30;99.90;;;;;;5107876;28;20188;-33
2021/01/13 16:43:21;;;;;;;10.73;3.10;;;9.40;99.90;;;;;;5112304;28;20224;-35
2021/01/13 16:45:51;;;;;;;6.57;2.15;;;9.40;99.90;;;;;;5112200;28;20189;-36
2021/01/13 16:48:21;;;;;;;6.10;3.08;;;9.40;99.90;;;;;;5112354;28;20679;-34
2021/01/13 16:50:51;;;;;;;5.55;2.25;;;9.50;99.90;;;;;;5110311;28;20189;-31
2021/01/13 16:53:22;;;;;;;9.18;2.55;;;9.60;99.90;;;;;;5110471;28;20203;-34
2021/01/13 16:55:53;;;;;;;8.57;2.70;;;9.70;99.90;;;;;;5111856;28;20624;-32
2021/01/13 16:58:25;;;;;;;9.73;2.50;;;10.00;99.90;;;;;;5112241;28;20193;-36
2021/01/13 17:00:57;;;;;;;4.80;2.08;;;10.10;99.90;;;;;;5106828;28;20202;-33
2021/01/13 17:03:27;;;;;;;7.07;3.20;;;10.10;99.90;;;;;;5105069;28;20233;-33
2021/01/13 17:05:57;;;;;;;5.60;2.05;;;10.70;99.90;;;;;;5091354;28;20266;-34
2021/01/13 17:08:28;;;;;;;6.63;2.20;;;11.70;99.90;;;;;;5108770;28;20192;-31
2021/01/13 17:10:59;;;;;;;8.30;2.93;;;12.90;99.90;;;;;;5110833;28;20440;-35
2021/01/13 17:13:31;;;;;;;7.47;3.77;;;14.00;99.90;;;;;;5104566;28;20441;-35
2021/01/13 17:16:03;;;;;;;7.90;3.27;;;14.60;99.90;;;;;;5111726;28;20506;-33
2021/01/13 17:18:37;;;;;;;9.43;3.10;;;14.40;99.90;;;;;;5107466;28;20456;-37
2021/01/13 17:21:07;;;;;;;8.63;2.70;;;14.50;99.90;;;;;;5098124;28;20439;-34
2021/01/13 17:23:38;;;;;;;7.90;3.00;;;14.20;99.90;;;;;;5111686;28;20744;-36
2021/01/13 17:26:10;;;;;;;7.50;2.53;;;13.80;99.90;;;;;;5110737;28;20438;-34
2021/01/13 17:28:41;;;;;;;7.30;2.80;;;13.90;99.90;;;;;;5111832;28;20745;-34
2021/01/13 17:31:11;;;;;;;5.00;2.73;;;14.40;99.90;;;;;;5111609;27;20832;-35
2021/01/13 17:33:41;;;;;;;4.50;2.30;;;15.30;99.90;;;;;;5111483;28;20448;-38
2021/01/13 17:36:13;;;;;;;5.73;2.20;;;16.00;99.90;;;;;;5110848;28;20491;-37
2021/01/13 17:38:43;;;;;;;6.10;2.00;;;15.80;99.90;;;;;;5091390;28;20788;-33
2021/01/13 17:41:16;;;;;;;5.93;2.60;;;15.80;99.90;;;;;;5090169;28;20955;-35
2021/01/13 17:43:47;;;;;;;5.43;2.40;;;15.80;99.90;;;;;;5091181;28;20973;-36
2021/01/13 17:46:32;;;;;;;4.27;1.80;;;15.10;99.90;;;;;;5102267;28;20439;-37
2021/01/13 17:49:03;;;;;;;4.97;2.10;;;14.70;99.90;;;;;;5111325;28;20423;-36
2021/01/13 17:51:34;;;;;;;6.00;2.60;;;14.60;99.90;;;;;;5110137;28;20770;-35
2021/01/13 17:54:06;;;;;;;8.70;2.93;;;14.20;99.90;;;;;;5107806;28;20440;-33
2021/01/13 17:56:39;;;;;;;6.30;1.90;;;13.90;99.90;;;;;;5102930;28;20446;-35
2021/01/13 17:59:10;;;;;;;10.40;3.73;;;13.60;99.90;;;;;;5103122;28;20952;-38
2021/01/13 18:01:40;;;;;;;7.37;2.93;;;13.40;99.90;;;;;;5108002;28;20776;-38
2021/01/13 18:04:13;;;;;;;7.37;2.63;;;13.40;99.90;;;;;;5109321;28;20537;-37
2021/01/13 18:06:44;;;;;;;7.30;2.57;;;13.20;99.90;;;;;;5109664;28;20585;-37
2021/01/13 18:09:14;;;;;;;5.10;2.00;;;13.30;99.90;;;;;;5101473;28;20438;-35
2021/01/13 18:11:46;;;;;;;12.03;2.80;;;13.40;99.90;;;;;;5089481;28;20500;-35
2021/01/13 18:14:16;;;;;;;6.47;3.00;;;13.30;99.90;;;;;;5109627;28;20441;-36
2021/01/13 18:16:46;;;;;;;6.60;2.17;;;12.90;99.90;;;;;;5110345;28;20442;-35
2021/01/13 18:19:16;;;;;;;9.17;2.50;;;12.90;99.90;;;;;;5110408;28;20465;-34
2021/01/13 18:21:46;;;;;;;7.07;2.80;;;13.60;99.90;;;;;;5110313;28;20522;-35